createdAt,value
2023-02-27T00:01:45.131Z,66.83
2023-02-27T00:04:11.603Z,66.58
2023-02-27T00:06:38.097Z,66.15
2023-02-27T00:09:04.597Z,66.12
2023-02-27T00:11:31.244Z,65.64
2023-02-27T00:13:58.197Z,65.72
2023-02-27T00:16:24.755Z,65.88
2023-02-27T00:18:51.228Z,66.26
2023-02-27T00:21:17.712Z,66.21
2023-02-27T00:23:44.159Z,65.58
2023-02-27T00:26:10.630Z,66.50
2023-02-27T00:28:37.712Z,66.26
2023-02-27T00:31:04.853Z,66.36
2023-02-27T00:33:31.417Z,65.89
2023-02-27T00:36:00.148Z,66.20
2023-02-27T00:38:27.988Z,66.29
2023-02-27T00:40:57.280Z,66.77
2023-02-27T00:43:23.847Z,66.43
2023-02-27T00:45:50.369Z,66.52
2023-02-27T00:48:16.909Z,66.28
2023-02-27T00:50:44.098Z,66.95
2023-02-27T00:53:10.623Z,66.43
2023-02-27T00:55:37.250Z,66.83
2023-02-27T00:58:03.763Z,66.82
2023-02-27T01:00:31.071Z,66.65
2023-02-27T01:02:57.591Z,67.84
2023-02-27T01:05:24.124Z,67.52
2023-02-27T01:07:51.144Z,67.12
2023-02-27T01:10:17.855Z,66.92
2023-02-27T01:12:44.372Z,67.17
2023-02-27T01:15:11.581Z,67.19
2023-02-27T01:17:38.393Z,66.68
2023-02-27T01:20:06.945Z,67.84
2023-02-27T01:22:34.194Z,67.74
2023-02-27T01:25:00.869Z,66.84
2023-02-27T01:27:27.795Z,67.32
2023-02-27T01:29:54.330Z,67.70
2023-02-27T01:32:23.061Z,67.69
2023-02-27T01:34:49.785Z,68.05
2023-02-27T01:37:16.357Z,67.68
2023-02-27T01:39:42.847Z,67.97
2023-02-27T01:42:25.220Z,68.12
2023-02-27T01:45:23.054Z,67.78
2023-02-27T01:47:52.903Z,68.36
2023-02-27T01:50:20.121Z,68.26
2023-02-27T01:52:52.891Z,68.02
2023-02-27T01:55:20.389Z,68.47
2023-02-27T01:57:48.738Z,67.99
2023-02-27T02:00:15.681Z,68.17
2023-02-27T02:02:49.637Z,67.87
2023-02-27T02:05:16.159Z,68.36
2023-02-27T02:07:44.572Z,68.39
2023-02-27T02:10:12.409Z,67.98
2023-02-27T02:12:40.528Z,68.16
2023-02-27T02:15:09.034Z,68.65
2023-02-27T02:17:57.163Z,69.57
2023-02-27T02:20:56.849Z,68.94
2023-02-27T02:23:42.029Z,69.78
2023-02-27T02:26:15.371Z,68.91
2023-02-27T02:28:44.824Z,69.23
2023-02-27T02:31:35.738Z,70.54
2023-02-27T02:34:29.854Z,69.61
2023-02-27T02:37:31.051Z,70.60
2023-02-27T02:39:57.573Z,70.84
2023-02-27T02:42:53.340Z,70.55
2023-02-27T02:45:40.474Z,70.31
2023-02-27T02:48:27.801Z,70.89
2023-02-27T02:51:08.093Z,70.51
2023-02-27T02:54:01.180Z,71.20
2023-02-27T02:56:39.608Z,71.88
2023-02-27T02:59:32.277Z,71.23
2023-02-27T03:02:06.818Z,71.14
2023-02-27T03:04:52.155Z,71.44
2023-02-27T03:07:25.893Z,71.59
2023-02-27T03:10:16.508Z,71.47
2023-02-27T03:12:49.516Z,71.71
2023-02-27T03:15:21.184Z,71.72
2023-02-27T03:17:53.974Z,72.04
2023-02-27T03:20:33.729Z,72.46
2023-02-27T03:23:07.049Z,72.30
2023-02-27T03:25:34.562Z,72.31
2023-02-27T03:28:09.108Z,72.62
2023-02-27T03:30:49.699Z,73.59
2023-02-27T03:33:30.074Z,72.58
2023-02-27T03:36:10.506Z,72.64
2023-02-27T03:39:00.194Z,72.51
2023-02-27T03:41:37.575Z,72.95
2023-02-27T03:44:31.620Z,72.94
2023-02-27T03:46:59.077Z,72.46
2023-02-27T03:49:25.794Z,72.46
2023-02-27T03:51:52.367Z,72.95
2023-02-27T03:54:27.614Z,72.81
2023-02-27T03:57:03.228Z,72.61
2023-02-27T03:59:31.790Z,72.77
2023-02-27T04:02:00.190Z,72.46
2023-02-27T04:04:28.739Z,72.78
2023-02-27T04:07:50.537Z,72.06
2023-02-27T04:10:29.099Z,72.96
2023-02-27T04:13:15.828Z,72.44
2023-02-27T04:16:15.726Z,73.13
2023-02-27T04:18:56.734Z,73.49
2023-02-27T04:21:37.301Z,73.14
2023-02-27T04:24:27.983Z,73.47
2023-02-27T04:27:02.491Z,72.94
2023-02-27T04:29:49.786Z,73.95
2023-02-27T04:32:53.264Z,73.65
2023-02-27T04:35:32.824Z,74.25
2023-02-27T04:38:20.330Z,74.98
2023-02-27T04:40:53.717Z,75.43
2023-02-27T04:43:24.258Z,74.68
2023-02-27T04:45:54.274Z,74.60
2023-02-27T04:48:27.325Z,74.50
2023-02-27T04:50:59.681Z,74.94
2023-02-27T04:53:36.737Z,74.41
2023-02-27T04:56:14.244Z,74.87
2023-02-27T04:58:54.764Z,74.33
2023-02-27T05:01:30.236Z,74.35
2023-02-27T05:04:00.364Z,74.04
2023-02-27T05:06:30.797Z,74.49
2023-02-27T05:09:06.646Z,73.86
2023-02-27T05:11:41.286Z,74.27
2023-02-27T05:14:19.001Z,73.74
2023-02-27T05:16:51.923Z,74.18
2023-02-27T05:19:19.617Z,74.23
2023-02-27T05:22:04.749Z,74.34
2023-02-27T05:24:58.224Z,74.30
2023-02-27T05:27:48.743Z,74.09
2023-02-27T05:30:26.432Z,73.94
2023-02-27T05:33:06.687Z,74.69
2023-02-27T05:35:41.578Z,74.02
2023-02-27T05:38:28.529Z,74.19
2023-02-27T05:41:10.169Z,73.99
2023-02-27T05:43:47.107Z,74.35
2023-02-27T05:46:19.820Z,74.00
2023-02-27T05:48:53.808Z,74.42
2023-02-27T05:51:23.557Z,74.67
2023-02-27T05:53:57.121Z,74.10
2023-02-27T05:56:26.836Z,74.06
2023-02-27T05:59:06.459Z,74.37
2023-02-27T06:01:33.493Z,73.84
2023-02-27T06:04:00.091Z,74.21
2023-02-27T06:06:26.962Z,74.09
2023-02-27T06:08:53.573Z,74.32
2023-02-27T06:11:20.020Z,74.36
2023-02-27T06:13:46.496Z,75.26
2023-02-27T06:16:15.369Z,74.25
2023-02-27T06:18:41.888Z,74.53
2023-02-27T06:21:08.444Z,74.70
2023-02-27T06:23:34.912Z,75.05
2023-02-27T06:26:01.430Z,74.70
2023-02-27T06:28:27.931Z,74.48
2023-02-27T06:30:57.119Z,74.42
2023-02-27T06:33:26.794Z,74.28
2023-02-27T06:35:53.541Z,74.50
2023-02-27T06:38:20.182Z,74.75
2023-02-27T06:40:46.791Z,73.99
2023-02-27T06:43:14.813Z,74.54
2023-02-27T06:45:41.397Z,73.42
2023-02-27T06:48:08.022Z,74.07
2023-02-27T06:50:34.826Z,73.21
2023-02-27T06:53:01.335Z,73.05
2023-02-27T06:55:27.887Z,72.82
2023-02-27T06:57:54.347Z,72.97
2023-02-27T07:00:21.321Z,72.86
2023-02-27T07:02:47.817Z,72.12
2023-02-27T07:05:14.289Z,72.02
2023-02-27T07:07:40.768Z,71.27
2023-02-27T07:10:11.729Z,70.87
2023-02-27T07:12:38.969Z,70.81
2023-02-27T07:15:06.207Z,70.52
2023-02-27T07:17:32.739Z,69.63
2023-02-27T07:19:59.340Z,67.79
2023-02-27T07:22:25.959Z,65.56
2023-02-27T07:24:52.396Z,65.00
2023-02-27T07:27:18.873Z,63.61
2023-02-27T07:29:45.397Z,61.67
2023-02-27T07:32:11.946Z,59.46
2023-02-27T07:34:38.453Z,55.87
2023-02-27T07:37:04.970Z,54.76
2023-02-27T07:39:31.484Z,55.25
2023-02-27T07:41:57.962Z,53.76
2023-02-27T07:44:24.590Z,53.86
2023-02-27T07:46:51.177Z,52.25
2023-02-27T07:49:17.649Z,56.62
2023-02-27T07:51:44.206Z,56.68
2023-02-27T07:54:10.784Z,56.16
2023-02-27T07:56:37.271Z,58.19
2023-02-27T07:59:03.748Z,58.68
2023-02-27T08:01:30.400Z,57.17
2023-02-27T08:03:56.989Z,56.37
2023-02-27T08:06:24.059Z,56.48
2023-02-27T08:08:51.756Z,56.66
2023-02-27T08:11:18.869Z,55.40
2023-02-27T08:14:02.786Z,54.37
2023-02-27T08:16:30.813Z,55.73
2023-02-27T08:18:57.720Z,54.28
2023-02-27T08:21:24.242Z,54.43
2023-02-27T08:23:50.879Z,54.92
2023-02-27T08:26:17.386Z,54.45
2023-02-27T08:28:44.208Z,53.20
2023-02-27T08:31:10.821Z,54.44
2023-02-27T08:33:37.302Z,54.86
2023-02-27T08:36:04.069Z,56.30
2023-02-27T08:38:30.537Z,55.41
2023-02-27T08:40:57.048Z,54.42
2023-02-27T08:43:23.764Z,53.38
2023-02-27T08:45:50.702Z,52.52
2023-02-27T08:48:18.442Z,52.14
2023-02-27T08:50:46.211Z,53.20
2023-02-27T08:53:13.014Z,52.59
2023-02-27T08:55:39.458Z,49.83
2023-02-27T08:58:05.976Z,51.91
2023-02-27T09:00:32.820Z,48.87
2023-02-27T09:03:00.557Z,50.11
2023-02-27T09:05:28.205Z,48.40
2023-02-27T09:07:54.697Z,49.71
2023-02-27T09:10:21.518Z,47.86
2023-02-27T09:12:49.210Z,47.42
2023-02-27T09:15:15.946Z,47.09
2023-02-27T09:17:42.525Z,44.45
2023-02-27T09:20:10.688Z,45.95
2023-02-27T09:22:37.357Z,48.63
2023-02-27T09:25:04.235Z,47.00
2023-02-27T09:27:30.705Z,47.95
2023-02-27T09:29:57.277Z,48.97
2023-02-27T09:32:24.685Z,48.56
2023-02-27T09:34:51.508Z,49.44
2023-02-27T09:37:19.828Z,49.21
2023-02-27T09:39:46.503Z,51.94
2023-02-27T09:42:20.842Z,50.28
2023-02-27T09:44:57.394Z,50.34
2023-02-27T09:47:40.855Z,49.95
2023-02-27T09:50:16.204Z,48.98
2023-02-27T09:52:42.688Z,47.07
2023-02-27T09:55:19.006Z,46.92
2023-02-27T09:58:01.688Z,46.72
2023-02-27T10:00:39.159Z,46.34
2023-02-27T10:03:27.872Z,43.56
2023-02-27T10:06:07.233Z,43.32
2023-02-27T10:09:03.829Z,45.42
2023-02-27T10:11:46.911Z,47.55
2023-02-27T10:14:23.159Z,47.43
2023-02-27T10:16:51.251Z,46.26
2023-02-27T10:19:26.438Z,44.67
2023-02-27T10:21:55.390Z,46.39
2023-02-27T10:24:40.390Z,43.34
2023-02-27T10:27:14.642Z,44.10
2023-02-27T10:29:41.612Z,43.04
2023-02-27T10:32:26.776Z,44.07
2023-02-27T10:35:02.797Z,41.99
2023-02-27T10:37:30.349Z,39.00
2023-02-27T10:40:00.460Z,39.31
2023-02-27T10:42:32.548Z,39.63
2023-02-27T10:44:59.152Z,40.54
2023-02-27T10:47:26.481Z,41.34
2023-02-27T10:49:54.636Z,43.63
2023-02-27T10:52:21.176Z,45.33
2023-02-27T10:54:48.669Z,43.13
2023-02-27T10:57:26.748Z,42.60
2023-02-27T11:00:00.012Z,41.20
2023-02-27T11:02:41.893Z,41.63
2023-02-27T11:05:21.011Z,39.96
2023-02-27T11:07:47.838Z,41.34
2023-02-27T11:10:14.234Z,41.18
2023-02-27T11:12:43.377Z,41.77
2023-02-27T11:15:15.630Z,41.98
2023-02-27T11:17:43.558Z,44.08
2023-02-27T11:20:33.484Z,41.54
2023-02-27T11:23:14.435Z,42.62
2023-02-27T11:25:41.949Z,43.65
2023-02-27T11:28:29.711Z,41.16
2023-02-27T11:31:04.080Z,38.81
2023-02-27T11:33:36.035Z,39.26
2023-02-27T11:36:03.600Z,41.46
2023-02-27T11:38:32.186Z,39.28
2023-02-27T11:41:01.838Z,37.96
2023-02-27T11:43:30.318Z,41.84
2023-02-27T11:46:24.389Z,41.08
2023-02-27T11:49:00.343Z,41.34
2023-02-27T11:52:05.518Z,39.87
2023-02-27T11:54:43.237Z,39.88
2023-02-27T11:57:33.702Z,39.34
2023-02-27T12:00:06.687Z,37.89
2023-02-27T12:02:46.979Z,37.02
2023-02-27T12:05:54.445Z,40.72
2023-02-27T12:08:34.797Z,39.50
2023-02-27T12:11:14.536Z,40.10
2023-02-27T12:13:45.065Z,37.09
2023-02-27T12:16:32.640Z,32.93
2023-02-27T12:19:10.924Z,32.43
2023-02-27T12:21:43.198Z,35.74
2023-02-27T12:24:28.937Z,34.84
2023-02-27T12:27:20.616Z,35.07
2023-02-27T12:30:08.034Z,34.31
2023-02-27T12:33:13.422Z,35.55
2023-02-27T12:35:43.119Z,35.79
2023-02-27T12:38:15.126Z,35.96
2023-02-27T12:41:16.777Z,34.85
2023-02-27T12:43:53.748Z,37.25
2023-02-27T12:46:39.687Z,35.31
2023-02-27T12:49:24.677Z,36.45
2023-02-27T12:52:04.179Z,35.24
2023-02-27T12:54:41.074Z,36.55
2023-02-27T12:57:37.069Z,36.14
2023-02-27T13:00:12.609Z,38.03
2023-02-27T13:03:09.778Z,38.86
2023-02-27T13:05:59.208Z,38.23
2023-02-27T13:09:01.174Z,37.14
2023-02-27T13:11:46.911Z,39.98
2023-02-27T13:14:29.630Z,42.00
2023-02-27T13:17:02.444Z,38.94
2023-02-27T13:19:43.313Z,41.39
2023-02-27T13:22:26.889Z,42.59
2023-02-27T13:24:57.751Z,44.05
2023-02-27T13:27:35.426Z,45.99
2023-02-27T13:30:05.218Z,45.52
2023-02-27T13:32:45.376Z,46.24
2023-02-27T13:35:17.842Z,45.78
2023-02-27T13:37:58.341Z,46.49
2023-02-27T13:40:41.386Z,46.68
2023-02-27T13:43:28.359Z,47.48
2023-02-27T13:46:00.616Z,48.41
2023-02-27T13:48:45.796Z,49.13
2023-02-27T13:51:38.540Z,48.76
2023-02-27T13:54:14.293Z,48.26
2023-02-27T13:56:46.812Z,48.53
2023-02-27T13:59:20.640Z,48.78
2023-02-27T14:01:57.930Z,48.69
2023-02-27T14:04:27.945Z,48.63
2023-02-27T14:07:02.237Z,48.25
2023-02-27T14:09:37.490Z,48.10
2023-02-27T14:12:06.641Z,49.37
2023-02-27T14:14:35.915Z,49.33
2023-02-27T14:17:03.633Z,48.72
2023-02-27T14:19:42.433Z,48.19
2023-02-27T14:22:11.909Z,48.14
2023-02-27T14:24:49.608Z,48.88
2023-02-27T14:27:25.885Z,48.92
2023-02-27T14:29:57.292Z,48.84
2023-02-27T14:32:29.934Z,48.64
2023-02-27T14:34:56.959Z,47.60
2023-02-27T14:37:26.485Z,49.34
2023-02-27T14:39:55.128Z,49.53
2023-02-27T14:42:36.595Z,49.34
2023-02-27T14:45:04.573Z,48.17
2023-02-27T14:47:34.574Z,48.93
2023-02-27T14:50:03.998Z,48.25
2023-02-27T14:52:40.346Z,48.14
2023-02-27T14:55:37.257Z,48.75
2023-02-27T14:58:19.791Z,49.39
2023-02-27T15:00:59.713Z,48.34
2023-02-27T15:03:32.540Z,46.99
2023-02-27T15:06:01.897Z,47.70
2023-02-27T15:08:31.414Z,48.13
2023-02-27T15:10:59.194Z,48.21
2023-02-27T15:13:29.378Z,48.80
2023-02-27T15:16:18.535Z,49.11
2023-02-27T15:19:16.836Z,48.86
2023-02-27T15:21:49.984Z,48.64
2023-02-27T15:24:49.134Z,49.81
2023-02-27T15:27:21.295Z,49.50
2023-02-27T15:29:59.562Z,49.81
2023-02-27T15:32:30.296Z,68.54
2023-02-27T15:34:58.818Z,46.90
2023-02-27T15:37:29.969Z,47.81
2023-02-27T15:39:58.164Z,48.94
2023-02-27T15:42:29.949Z,49.02
2023-02-27T15:44:58.435Z,48.72
2023-02-27T15:47:28.268Z,48.54
2023-02-27T15:50:00.229Z,49.39
2023-02-27T15:52:32.442Z,48.91
2023-02-27T15:55:05.866Z,49.11
2023-02-27T15:57:33.207Z,49.51
2023-02-27T16:00:00.350Z,49.10
2023-02-27T16:02:39.385Z,49.06
2023-02-27T16:05:06.433Z,49.22
2023-02-27T16:07:42.482Z,50.25
2023-02-27T16:10:21.779Z,49.40
2023-02-27T16:12:48.389Z,49.88
2023-02-27T16:15:24.074Z,49.88
2023-02-27T16:18:02.852Z,50.42
2023-02-27T16:20:36.757Z,50.52
2023-02-27T16:23:09.363Z,50.63
2023-02-27T16:25:35.869Z,50.23
2023-02-27T16:28:02.494Z,50.03
2023-02-27T16:30:29.014Z,50.58
2023-02-27T16:33:00.806Z,50.70
2023-02-27T16:35:27.453Z,50.91
2023-02-27T16:38:00.294Z,50.93
2023-02-27T16:40:27.173Z,51.10
2023-02-27T16:42:53.805Z,51.35
2023-02-27T16:45:24.435Z,51.04
2023-02-27T16:47:53.798Z,51.41
2023-02-27T16:50:31.434Z,51.57
2023-02-27T16:52:57.883Z,50.95
2023-02-27T16:55:25.268Z,51.24
2023-02-27T16:57:52.074Z,50.93
2023-02-27T17:00:19.815Z,49.86
2023-02-27T17:02:49.096Z,50.05
2023-02-27T17:05:16.383Z,50.29
2023-02-27T17:07:43.355Z,50.27
2023-02-27T17:10:16.033Z,50.20
2023-02-27T17:12:43.992Z,49.82
2023-02-27T17:15:10.712Z,48.96
2023-02-27T17:17:37.174Z,49.39
2023-02-27T17:20:07.206Z,48.99
2023-02-27T17:22:39.537Z,49.94
2023-02-27T17:25:07.598Z,49.87
2023-02-27T17:27:34.468Z,49.80
2023-02-27T17:30:01.107Z,49.89
2023-02-27T17:32:27.640Z,50.32
2023-02-27T17:34:55.704Z,50.04
2023-02-27T17:37:22.925Z,49.78
2023-02-27T17:39:49.536Z,49.84
2023-02-27T17:42:18.459Z,50.19
2023-02-27T17:44:46.169Z,50.04
2023-02-27T17:47:12.812Z,50.41
2023-02-27T17:49:39.353Z,51.58
2023-02-27T17:52:07.194Z,52.08
2023-02-27T17:54:35.435Z,51.06
2023-02-27T17:57:02.517Z,52.04
2023-02-27T17:59:29.008Z,52.26
2023-02-27T18:01:55.833Z,52.06
2023-02-27T18:04:22.586Z,51.61
2023-02-27T18:06:50.542Z,51.22
2023-02-27T18:09:17.837Z,51.93
2023-02-27T18:11:44.416Z,52.22
2023-02-27T18:14:11.002Z,50.14
2023-02-27T18:16:37.778Z,50.32
2023-02-27T18:19:06.142Z,50.48
2023-02-27T18:21:33.473Z,51.16
2023-02-27T18:24:00.491Z,50.52
2023-02-27T18:26:31.130Z,50.34
2023-02-27T18:29:04.271Z,50.80
2023-02-27T18:31:34.059Z,50.52
2023-02-27T18:34:01.468Z,50.63
2023-02-27T18:36:29.840Z,51.59
2023-02-27T18:38:56.856Z,51.20
2023-02-27T18:41:23.334Z,51.41
2023-02-27T18:43:49.958Z,51.11
2023-02-27T18:46:16.816Z,50.89
2023-02-27T18:48:44.640Z,50.64
2023-02-27T18:51:14.444Z,49.84
2023-02-27T18:53:46.080Z,49.30
2023-02-27T18:56:15.231Z,49.77
2023-02-27T18:58:42.417Z,48.95
2023-02-27T19:01:18.317Z,48.76
2023-02-27T19:03:44.852Z,49.64
2023-02-27T19:06:11.387Z,50.16
2023-02-27T19:08:37.882Z,50.16
2023-02-27T19:11:04.575Z,49.70
2023-02-27T19:13:31.114Z,49.69
2023-02-27T19:16:01.439Z,49.31
2023-02-27T19:18:27.927Z,50.63
2023-02-27T19:20:56.422Z,49.90
2023-02-27T19:23:23.760Z,50.21
2023-02-27T19:25:57.971Z,49.66
2023-02-27T19:28:24.438Z,50.27
2023-02-27T19:30:51.021Z,51.06
2023-02-27T19:33:17.472Z,50.96
2023-02-27T19:35:43.950Z,51.00
2023-02-27T19:38:10.488Z,51.65
2023-02-27T19:40:37.107Z,51.15
2023-02-27T19:43:03.591Z,51.31
2023-02-27T19:45:30.173Z,52.16
2023-02-27T19:47:56.633Z,52.52
2023-02-27T19:50:23.145Z,52.26
2023-02-27T19:52:49.610Z,52.27
2023-02-27T19:55:16.069Z,51.64
2023-02-27T19:57:42.547Z,50.75
2023-02-27T20:00:09.779Z,51.14
2023-02-27T20:02:40.865Z,50.30
2023-02-27T20:05:07.877Z,50.60
2023-02-27T20:07:34.392Z,51.02
2023-02-27T20:10:00.962Z,51.15
2023-02-27T20:12:28.193Z,51.24
2023-02-27T20:14:54.646Z,51.67
2023-02-27T20:17:21.265Z,52.30
2023-02-27T20:19:47.709Z,52.06
2023-02-27T20:22:15.570Z,52.59
2023-02-27T20:24:44.576Z,53.61
2023-02-27T20:27:11.562Z,53.92
2023-02-27T20:29:38.087Z,53.95
2023-02-27T20:32:04.882Z,54.84
2023-02-27T20:34:31.458Z,54.48
2023-02-27T20:36:58.065Z,54.46
2023-02-27T20:39:25.280Z,54.92
2023-02-27T20:41:51.810Z,55.30
2023-02-27T20:44:18.309Z,55.40
2023-02-27T20:46:45.283Z,55.06
2023-02-27T20:49:15.571Z,54.86
2023-02-27T20:51:42.696Z,54.68
2023-02-27T20:54:13.487Z,55.53
2023-02-27T20:56:41.277Z,55.56
2023-02-27T20:59:11.607Z,55.19
2023-02-27T21:01:38.714Z,55.98
2023-02-27T21:04:05.858Z,55.33
2023-02-27T21:06:32.509Z,55.84
2023-02-27T21:09:03.324Z,56.32
2023-02-27T21:11:31.471Z,56.12
2023-02-27T21:14:02.035Z,55.74
2023-02-27T21:16:28.582Z,56.48
2023-02-27T21:18:56.631Z,56.48
2023-02-27T21:21:27.436Z,56.66
2023-02-27T21:23:54.385Z,56.23
2023-02-27T21:26:26.689Z,56.80
2023-02-27T21:29:02.349Z,57.00
2023-02-27T21:31:31.909Z,57.21
2023-02-27T21:34:00.829Z,57.99
2023-02-27T21:36:33.233Z,57.85
2023-02-27T21:39:02.922Z,57.66
2023-02-27T21:41:30.537Z,57.98
2023-02-27T21:44:05.548Z,58.61
2023-02-27T21:46:32.740Z,59.01
2023-02-27T21:49:00.118Z,58.97
2023-02-27T21:51:39.383Z,59.48
2023-02-27T21:54:07.748Z,59.55
2023-02-27T21:56:34.211Z,59.76
2023-02-27T21:59:01.856Z,59.60
2023-02-27T22:01:29.652Z,60.34
2023-02-27T22:03:56.673Z,60.67
2023-02-27T22:06:25.289Z,60.04
2023-02-27T22:08:56.152Z,60.32
2023-02-27T22:11:24.140Z,61.14
2023-02-27T22:13:50.652Z,60.31
2023-02-27T22:16:17.291Z,59.95
2023-02-27T22:18:44.906Z,60.02
2023-02-27T22:21:24.010Z,60.23
2023-02-27T22:23:50.858Z,59.82
2023-02-27T22:26:24.170Z,59.59
2023-02-27T22:28:52.256Z,60.33
2023-02-27T22:31:25.082Z,60.67
2023-02-27T22:33:54.743Z,60.67
2023-02-27T22:36:24.614Z,60.43
2023-02-27T22:38:51.976Z,60.14
2023-02-27T22:41:24.139Z,60.04
2023-02-27T22:43:50.971Z,60.60
2023-02-27T22:46:25.526Z,60.74
2023-02-27T22:48:56.708Z,61.08
2023-02-27T22:51:25.263Z,61.45
2023-02-27T22:53:51.860Z,61.74
2023-02-27T22:56:18.476Z,61.59
2023-02-27T22:58:45.366Z,61.87
2023-02-27T23:01:23.168Z,62.06
2023-02-27T23:03:51.801Z,62.46
2023-02-27T23:06:25.098Z,62.35
2023-02-27T23:08:51.794Z,62.69
2023-02-27T23:11:19.630Z,63.24
2023-02-27T23:13:46.675Z,63.01
2023-02-27T23:16:13.735Z,63.50
2023-02-27T23:18:42.191Z,64.00
2023-02-27T23:21:09.875Z,64.30
2023-02-27T23:23:36.385Z,63.98
2023-02-27T23:26:04.213Z,64.15
2023-02-27T23:28:31.268Z,64.86
2023-02-27T23:30:59.412Z,64.49
2023-02-27T23:33:27.038Z,65.17
2023-02-27T23:35:53.704Z,65.82
2023-02-27T23:38:20.273Z,65.55
2023-02-27T23:40:46.891Z,65.78
2023-02-27T23:43:14.694Z,66.49
2023-02-27T23:45:41.518Z,66.29
2023-02-27T23:48:08.652Z,66.68
2023-02-27T23:50:41.469Z,67.35
2023-02-27T23:53:08.263Z,67.37
2023-02-27T23:55:36.656Z,68.19
2023-02-27T23:58:06.513Z,68.39
